Time;durP1;ratioP1;P1;durP2;ratioP2;P2;SDS_P1;SDS_P2;PMS_P1;PMS_P2;Temp;Humidity;BMP_temperature;BMP_pressure;BME280_temperature;BME280_humidity;BME280_pressure;Samples;Min_cycle;Max_cycle;Signal;HPM_P1;HPM_P2
2023/09/29 00:02:17;;;;;;;16.35;6.13;;;15.60;99.90;;;;;;5090965;28;20399;-65
2023/09/29 00:04:43;;;;;;;19.25;5.97;;;15.60;99.90;;;;;;5090640;28;20055;-65
2023/09/29 00:07:11;;;;;;;22.48;6.72;;;15.60;99.90;;;;;;5092031;28;20048;-66
2023/09/29 00:09:38;;;;;;;26.10;6.95;;;15.60;99.90;;;;;;5092080;28;20048;-65
2023/09/29 00:12:05;;;;;;;20.50;6.18;;;15.70;99.90;;;;;;5090470;28;20054;-64
2023/09/29 00:14:33;;;;;;;23.67;6.43;;;15.70;99.90;;;;;;5091035;28;20048;-65
2023/09/29 00:17:00;;;;;;;19.30;5.85;;;15.70;99.90;;;;;;5091029;28;20428;-65
2023/09/29 00:19:27;;;;;;;20.38;6.38;;;15.70;99.90;;;;;;5090276;28;20056;-65
2023/09/29 00:21:54;;;;;;;18.85;6.22;;;15.70;99.90;;;;;;5090954;28;20438;-65
2023/09/29 00:24:21;;;;;;;14.40;5.10;;;15.70;99.90;;;;;;5090739;28;20052;-64
2023/09/29 00:26:48;;;;;;;19.05;6.18;;;15.60;99.90;;;;;;5091356;28;20119;-65
2023/09/29 00:29:15;;;;;;;15.57;5.63;;;15.70;99.90;;;;;;5092034;28;20060;-65
2023/09/29 00:31:43;;;;;;;18.90;5.97;;;15.70;99.90;;;;;;5090945;28;20580;-64
2023/09/29 00:34:10;;;;;;;16.27;5.97;;;15.70;99.90;;;;;;5090048;28;20055;-65
2023/09/29 00:36:37;;;;;;;15.13;5.57;;;15.70;99.90;;;;;;5090785;28;20480;-65
2023/09/29 00:39:07;;;;;;;17.45;5.40;;;15.70;99.90;;;;;;5088169;28;20047;-64
2023/09/29 00:41:35;;;;;;;14.13;5.63;;;15.70;99.90;;;;;;5089852;28;20044;-65
2023/09/29 00:44:02;;;;;;;15.75;5.13;;;15.70;99.90;;;;;;5090544;28;20048;-64
2023/09/29 00:46:30;;;;;;;20.63;5.45;;;15.70;99.90;;;;;;5090985;28;20050;-64
2023/09/29 00:48:59;;;;;;;20.25;6.88;;;15.70;99.90;;;;;;5090680;28;20437;-65
2023/09/29 00:51:26;;;;;;;16.70;5.65;;;15.70;99.90;;;;;;5093363;28;20048;-64
2023/09/29 00:53:53;;;;;;;14.05;5.45;;;15.70;99.90;;;;;;5093928;28;20059;-65
2023/09/29 00:56:21;;;;;;;12.43;5.22;;;15.70;99.90;;;;;;5099101;28;20411;-64
2023/09/29 00:58:48;;;;;;;21.70;4.95;;;15.70;99.90;;;;;;5116026;28;20043;-65
2023/09/29 01:01:15;;;;;;;22.13;6.10;;;15.70;99.90;;;;;;5095509;28;20138;-65
2023/09/29 01:03:42;;;;;;;18.33;5.13;;;15.70;99.90;;;;;;5116162;28;20121;-65
2023/09/29 01:06:10;;;;;;;17.55;5.25;;;15.70;99.90;;;;;;5097788;28;20406;-65
2023/09/29 01:08:39;;;;;;;15.95;5.68;;;15.70;99.90;;;;;;5097263;28;20437;-64
2023/09/29 01:11:09;;;;;;;17.10;5.63;;;15.70;99.90;;;;;;5097857;28;20043;-64
2023/09/29 01:13:40;;;;;;;13.15;4.55;;;15.70;99.90;;;;;;5097392;28;20043;-64
2023/09/29 01:16:08;;;;;;;17.70;6.15;;;15.70;99.90;;;;;;5096939;28;20051;-64
2023/09/29 01:18:37;;;;;;;22.98;5.57;;;15.70;99.90;;;;;;5097427;28;20051;-64
2023/09/29 01:21:06;;;;;;;17.13;5.00;;;15.70;99.90;;;;;;5097621;28;20074;-65
2023/09/29 01:23:35;;;;;;;22.70;5.50;;;15.70;99.90;;;;;;5097046;28;20043;-65
2023/09/29 01:26:03;;;;;;;13.73;4.57;;;15.70;99.90;;;;;;5097315;28;20468;-65
2023/09/29 01:28:30;;;;;;;13.98;5.18;;;15.60;99.90;;;;;;5115596;28;20100;-66
2023/09/29 01:30:57;;;;;;;16.63;5.05;;;15.70;99.90;;;;;;5096571;28;20043;-65
2023/09/29 01:33:24;;;;;;;15.85;5.60;;;15.70;99.90;;;;;;5096930;28;20048;-65
2023/09/29 01:35:51;;;;;;;15.73;5.55;;;15.60;99.90;;;;;;5096919;28;20051;-66
2023/09/29 01:38:18;;;;;;;15.15;5.20;;;15.70;99.90;;;;;;5115341;28;20102;-65
2023/09/29 01:40:46;;;;;;;14.27;5.05;;;15.70;99.90;;;;;;5097263;28;20051;-64
2023/09/29 01:43:13;;;;;;;11.90;4.82;;;15.70;99.90;;;;;;5096679;28;20047;-66
2023/09/29 01:45:40;;;;;;;19.17;6.55;;;15.70;99.90;;;;;;5097072;28;20048;-65
2023/09/29 01:48:08;;;;;;;19.02;5.88;;;15.60;99.90;;;;;;5096747;28;20525;-65
2023/09/29 01:50:35;;;;;;;16.23;5.68;;;15.70;99.90;;;;;;5096520;28;20070;-65
2023/09/29 01:53:02;;;;;;;16.35;5.88;;;15.70;99.90;;;;;;5096869;28;20506;-65
2023/09/29 01:55:29;;;;;;;13.07;5.70;;;15.70;99.90;;;;;;5096938;28;20052;-65
2023/09/29 01:57:58;;;;;;;24.15;6.93;;;15.70;99.90;;;;;;5091966;28;20458;-65
2023/09/29 02:00:28;;;;;;;14.30;6.45;;;15.70;99.90;;;;;;5096388;28;20051;-64
2023/09/29 02:02:56;;;;;;;21.42;5.95;;;15.70;99.90;;;;;;5096462;28;20048;-65
2023/09/29 02:05:23;;;;;;;20.10;5.95;;;15.60;99.90;;;;;;5096151;28;20487;-65
2023/09/29 02:07:50;;;;;;;18.73;5.70;;;15.70;99.90;;;;;;5096517;28;20048;-64
2023/09/29 02:10:20;;;;;;;17.52;5.85;;;15.60;99.90;;;;;;5112624;28;20051;-64
2023/09/29 02:12:51;;;;;;;16.65;5.18;;;15.70;99.90;;;;;;5096024;28;20568;-64
2023/09/29 02:15:19;;;;;;;15.80;5.80;;;15.60;99.90;;;;;;5114877;28;20047;-64
2023/09/29 02:17:48;;;;;;;20.20;5.65;;;15.60;99.90;;;;;;5096533;28;20044;-64
2023/09/29 02:20:17;;;;;;;18.52;5.53;;;15.60;99.90;;;;;;5096243;28;20054;-65
2023/09/29 02:22:44;;;;;;;15.35;6.03;;;15.60;99.90;;;;;;5114806;28;20043;-65
2023/09/29 02:25:15;;;;;;;21.05;5.65;;;15.70;99.90;;;;;;5092044;28;20051;-64
2023/09/29 02:27:42;;;;;;;;;;;15.60;99.90;;;;;;5096395;28;20035;-64
2023/09/29 02:30:11;;;;;;;21.75;5.82;;;15.70;99.90;;;;;;5096322;28;19971;-64
2023/09/29 02:32:41;;;;;;;23.52;6.43;;;15.70;99.90;;;;;;5095766;28;20082;-64
2023/09/29 02:35:09;;;;;;;17.90;5.43;;;15.70;99.90;;;;;;5096242;28;20377;-67
2023/09/29 02:37:36;;;;;;;11.88;5.15;;;15.70;99.90;;;;;;5096163;28;20047;-64
2023/09/29 02:40:06;;;;;;;17.42;5.32;;;15.70;99.90;;;;;;5091089;28;20056;-65
2023/09/29 02:42:32;;;;;;;15.27;5.55;;;15.70;99.90;;;;;;5096162;28;20059;-65
2023/09/29 02:44:59;;;;;;;17.25;5.93;;;15.70;99.90;;;;;;5095681;28;20047;-65
2023/09/29 02:47:26;;;;;;;16.17;5.80;;;15.70;99.90;;;;;;5095013;28;20093;-65
2023/09/29 02:49:55;;;;;;;13.95;5.85;;;15.70;99.90;;;;;;5095895;28;20512;-65
2023/09/29 02:52:22;;;;;;;17.48;5.63;;;15.70;99.90;;;;;;5093971;28;20048;-65
2023/09/29 02:54:49;;;;;;;15.45;6.20;;;15.70;99.90;;;;;;5095114;28;20055;-65
2023/09/29 02:57:16;;;;;;;18.02;5.68;;;15.80;99.90;;;;;;5093578;28;20052;-65
2023/09/29 02:59:44;;;;;;;17.45;5.03;;;15.80;99.90;;;;;;5095326;28;20051;-65
2023/09/29 03:02:12;;;;;;;13.85;5.90;;;15.80;99.90;;;;;;5113245;28;20042;-66
2023/09/29 03:04:40;;;;;;;14.07;5.05;;;15.80;99.90;;;;;;5092984;28;20083;-66
2023/09/29 03:07:09;;;;;;;14.55;4.95;;;15.80;99.90;;;;;;5094763;28;20047;-66
2023/09/29 03:09:36;;;;;;;13.43;5.18;;;15.80;99.90;;;;;;5093686;28;20043;-65
2023/09/29 03:12:03;;;;;;;17.35;4.63;;;15.80;99.90;;;;;;5113455;28;20060;-65
2023/09/29 03:14:30;;;;;;;11.52;4.20;;;15.80;99.90;;;;;;5092798;28;20446;-65
2023/09/29 03:16:58;;;;;;;12.63;4.57;;;15.80;99.90;;;;;;5095003;28;20039;-65
2023/09/29 03:19:25;;;;;;;17.58;5.30;;;15.80;99.90;;;;;;5095289;28;20168;-65
2023/09/29 03:21:53;;;;;;;15.60;5.43;;;15.80;99.90;;;;;;5090684;28;20048;-65
2023/09/29 03:24:21;;;;;;;17.80;4.95;;;15.80;99.90;;;;;;5094999;28;20055;-65
2023/09/29 03:26:49;;;;;;;11.35;4.18;;;15.80;99.90;;;;;;5113283;28;20051;-65
2023/09/29 03:29:17;;;;;;;14.20;5.07;;;15.80;99.90;;;;;;5094357;28;20578;-64
2023/09/29 03:31:44;;;;;;;11.52;4.13;;;15.90;99.90;;;;;;5094770;28;20422;-65
2023/09/29 03:34:11;;;;;;;13.90;4.90;;;15.90;99.90;;;;;;5090714;28;20052;-65
2023/09/29 03:36:38;;;;;;;19.60;5.10;;;15.90;99.90;;;;;;5094402;28;20052;-65
2023/09/29 03:39:06;;;;;;;14.00;5.05;;;15.90;99.90;;;;;;5094910;28;20048;-65
2023/09/29 03:41:35;;;;;;;15.00;5.05;;;15.90;99.90;;;;;;5094175;28;20491;-65
2023/09/29 03:44:02;;;;;;;12.15;4.65;;;15.90;99.90;;;;;;5112455;28;20043;-64
2023/09/29 03:46:29;;;;;;;18.60;4.07;;;15.90;99.90;;;;;;5094354;28;20054;-64
2023/09/29 03:48:56;;;;;;;21.48;5.20;;;16.00;99.90;;;;;;5080728;28;20495;-64
2023/09/29 03:51:23;;;;;;;11.73;4.80;;;16.00;99.90;;;;;;5088127;28;20100;-65
2023/09/29 03:53:50;;;;;;;11.25;4.72;;;16.10;99.90;;;;;;5090886;28;20491;-63
2023/09/29 03:56:17;;;;;;;12.13;5.25;;;16.10;99.90;;;;;;5086156;28;20048;-65
2023/09/29 03:58:46;;;;;;;16.70;4.82;;;16.00;99.90;;;;;;5086322;28;20056;-64
2023/09/29 04:01:15;;;;;;;14.48;5.10;;;16.20;99.90;;;;;;5086061;28;20044;-64
2023/09/29 04:03:42;;;;;;;15.85;5.68;;;16.20;99.90;;;;;;5087161;28;20062;-65
2023/09/29 04:06:10;;;;;;;16.25;5.25;;;16.20;99.90;;;;;;5085715;28;20109;-64
2023/09/29 04:08:37;;;;;;;15.20;5.32;;;16.20;99.90;;;;;;5088154;28;20049;-64
2023/09/29 04:11:04;;;;;;;18.33;4.88;;;16.20;99.90;;;;;;5083388;28;20048;-64
2023/09/29 04:13:31;;;;;;;13.48;5.20;;;16.20;99.90;;;;;;5090353;28;20051;-63
2023/09/29 04:16:04;;;;;;;14.23;4.70;;;16.30;99.90;;;;;;5085815;28;20044;-65
2023/09/29 04:18:31;;;;;;;13.50;5.07;;;16.30;99.90;;;;;;5088602;28;20135;-64
2023/09/29 04:20:59;;;;;;;11.18;4.30;;;16.40;99.90;;;;;;5086913;28;20109;-64
2023/09/29 04:23:27;;;;;;;17.23;5.70;;;16.30;99.90;;;;;;5087172;28;20097;-64
2023/09/29 04:25:54;;;;;;;11.18;4.55;;;16.40;99.90;;;;;;5084025;28;20050;-64
2023/09/29 04:28:21;;;;;;;12.27;5.47;;;16.40;99.90;;;;;;5089232;28;20056;-64
2023/09/29 04:30:48;;;;;;;13.00;4.93;;;16.40;99.90;;;;;;5083860;28;20064;-64
2023/09/29 04:33:16;;;;;;;8.88;4.22;;;16.40;99.90;;;;;;5088388;28;20761;-64
2023/09/29 04:35:43;;;;;;;13.18;5.00;;;16.50;99.90;;;;;;5087487;28;20045;-64
2023/09/29 04:38:10;;;;;;;16.25;5.10;;;16.50;99.90;;;;;;5082533;28;20051;-63
2023/09/29 04:40:37;;;;;;;16.27;4.90;;;16.60;99.90;;;;;;5085130;28;20055;-64
2023/09/29 04:43:05;;;;;;;14.82;4.82;;;16.60;99.90;;;;;;5086324;28;20052;-63
2023/09/29 04:45:33;;;;;;;11.30;4.65;;;16.50;99.90;;;;;;5085787;28;20487;-64
2023/09/29 04:48:01;;;;;;;13.55;4.47;;;16.60;99.90;;;;;;5084818;28;20040;-64
2023/09/29 04:50:29;;;;;;;15.23;5.10;;;16.50;99.90;;;;;;5086967;28;20048;-64
2023/09/29 04:52:56;;;;;;;13.73;5.43;;;16.60;99.90;;;;;;5082583;28;20048;-64
2023/09/29 04:55:23;;;;;;;12.68;5.38;;;16.50;99.90;;;;;;5086109;28;20457;-64
2023/09/29 04:57:52;;;;;;;14.35;4.80;;;16.50;99.90;;;;;;5085263;28;20044;-65
2023/09/29 05:00:19;;;;;;;14.98;4.95;;;16.50;99.90;;;;;;5088037;28;20063;-63
2023/09/29 05:02:46;;;;;;;15.10;5.65;;;16.50;99.90;;;;;;5084756;28;20075;-64
2023/09/29 05:05:13;;;;;;;19.77;5.30;;;16.50;99.90;;;;;;5086158;28;20051;-65
2023/09/29 05:07:44;;;;;;;14.50;5.68;;;16.50;99.90;;;;;;5083740;28;20036;-64
2023/09/29 05:10:13;;;;;;;11.52;4.63;;;16.50;99.90;;;;;;5086639;28;20044;-64
2023/09/29 05:12:40;;;;;;;12.73;4.88;;;16.50;99.90;;;;;;5083825;28;20440;-65
2023/09/29 05:15:09;;;;;;;15.18;5.50;;;16.50;99.90;;;;;;5086936;28;20743;-64
2023/09/29 05:17:37;;;;;;;13.00;5.28;;;16.50;99.90;;;;;;5080005;28;20056;-64
2023/09/29 05:20:05;;;;;;;11.32;4.57;;;16.50;99.90;;;;;;5089174;28;20044;-65
2023/09/29 05:22:32;;;;;;;15.77;5.30;;;16.50;99.90;;;;;;5089735;28;20074;-64
2023/09/29 05:25:00;;;;;;;18.10;5.50;;;16.50;99.90;;;;;;5087201;28;20492;-65
2023/09/29 05:27:29;;;;;;;13.70;4.53;;;16.50;99.90;;;;;;5086143;28;20047;-66
2023/09/29 05:29:56;;;;;;;12.35;4.95;;;16.60;99.90;;;;;;5078800;28;20052;-65
2023/09/29 05:32:24;;;;;;;9.40;4.72;;;16.60;99.90;;;;;;5086181;28;20109;-64
2023/09/29 05:34:51;;;;;;;13.98;5.47;;;16.60;99.90;;;;;;5081847;28;20144;-64
2023/09/29 05:37:18;;;;;;;12.65;4.50;;;16.60;99.90;;;;;;5089529;28;20044;-64
2023/09/29 05:39:45;;;;;;;13.10;5.22;;;16.50;99.90;;;;;;5089498;28;20052;-65
2023/09/29 05:42:13;;;;;;;13.60;4.93;;;16.50;99.90;;;;;;5093413;28;20564;-64
2023/09/29 05:44:40;;;;;;;10.32;4.85;;;16.50;99.90;;;;;;5090284;28;20059;-64
2023/09/29 05:47:07;;;;;;;12.32;4.57;;;16.50;99.90;;;;;;5090083;28;20412;-64
2023/09/29 05:49:34;;;;;;;9.25;4.72;;;16.50;99.90;;;;;;5083319;28;20052;-65
2023/09/29 05:52:01;;;;;;;17.52;5.03;;;16.50;99.90;;;;;;5085003;28;20512;-64
2023/09/29 05:54:28;;;;;;;13.45;4.97;;;16.50;99.90;;;;;;5090353;28;20051;-64
2023/09/29 05:56:54;;;;;;;11.52;4.43;;;16.50;99.90;;;;;;5089835;28;20044;-64
2023/09/29 05:59:23;;;;;;;15.30;5.30;;;16.60;99.90;;;;;;5085293;28;20056;-64
2023/09/29 06:01:50;;;;;;;10.02;4.55;;;16.60;99.90;;;;;;5089754;28;20110;-65
2023/09/29 06:04:17;;;;;;;12.40;4.72;;;16.60;99.90;;;;;;5085687;28;20057;-65
2023/09/29 06:06:44;;;;;;;11.73;4.93;;;16.60;99.90;;;;;;5088404;28;20055;-64
2023/09/29 06:09:11;;;;;;;11.88;4.80;;;16.60;99.90;;;;;;5086034;28;20122;-65
2023/09/29 06:11:38;;;;;;;16.48;4.93;;;16.60;99.90;;;;;;5087714;28;20056;-66
2023/09/29 06:14:05;;;;;;;16.35;6.20;;;16.70;99.90;;;;;;5085249;28;20159;-66
2023/09/29 06:16:33;;;;;;;17.00;5.20;;;16.70;99.90;;;;;;5089601;28;20052;-67
2023/09/29 06:19:00;;;;;;;12.77;4.95;;;16.70;99.90;;;;;;5090002;28;20044;-65
2023/09/29 06:21:28;;;;;;;9.52;4.88;;;16.70;99.90;;;;;;5084153;28;20434;-65
2023/09/29 06:23:55;;;;;;;13.20;4.82;;;16.70;99.90;;;;;;5092087;28;20484;-64
2023/09/29 06:26:22;;;;;;;12.15;4.80;;;16.70;99.90;;;;;;5089952;28;20055;-65
2023/09/29 06:28:49;;;;;;;9.75;5.03;;;16.70;99.90;;;;;;5091517;28;20201;-65
2023/09/29 06:31:16;;;;;;;9.43;5.18;;;16.70;99.90;;;;;;5090434;28;20044;-65
2023/09/29 06:33:44;;;;;;;11.15;5.18;;;16.80;99.90;;;;;;5092674;28;20495;-64
2023/09/29 06:36:11;;;;;;;11.73;5.05;;;16.80;99.90;;;;;;5088259;28;20557;-65
2023/09/29 06:38:38;;;;;;;12.70;5.72;;;16.70;99.90;;;;;;5091938;28;20055;-64
2023/09/29 06:41:05;;;;;;;10.90;5.43;;;16.70;99.90;;;;;;5092569;28;20385;-64
2023/09/29 06:43:32;;;;;;;14.25;5.97;;;16.70;99.90;;;;;;5091908;28;20507;-66
2023/09/29 06:45:59;;;;;;;16.92;5.65;;;16.80;99.90;;;;;;5093138;28;20043;-64
2023/09/29 06:48:26;;;;;;;9.25;4.65;;;16.80;99.90;;;;;;5091139;28;20048;-65
2023/09/29 06:50:58;;;;;;;9.65;4.90;;;16.80;99.90;;;;;;5092076;28;20048;-65
2023/09/29 06:53:25;;;;;;;12.80;4.75;;;16.90;99.90;;;;;;5090203;28;20384;-65
2023/09/29 06:55:53;;;;;;;9.23;4.47;;;17.00;99.90;;;;;;5092803;28;20060;-64
2023/09/29 06:58:20;;;;;;;11.75;5.15;;;17.10;99.90;;;;;;5113185;28;20048;-64
2023/09/29 07:00:47;;;;;;;11.60;5.25;;;17.30;99.90;;;;;;5098642;28;20051;-64
2023/09/29 07:03:14;;;;;;;12.38;5.78;;;17.40;99.90;;;;;;5096731;28;20051;-64
2023/09/29 07:05:41;;;;;;;11.65;5.10;;;17.50;99.90;;;;;;5098867;28;20051;-65
2023/09/29 07:08:09;;;;;;;10.77;5.15;;;17.60;99.90;;;;;;5094700;28;20047;-65
2023/09/29 07:10:36;;;;;;;8.82;4.90;;;17.90;99.90;;;;;;5095096;28;20044;-65
2023/09/29 07:13:03;;;;;;;13.10;5.47;;;18.30;99.90;;;;;;5095250;28;20044;-66
2023/09/29 07:15:30;;;;;;;8.70;4.43;;;18.90;99.90;;;;;;5090577;28;20044;-64
2023/09/29 07:17:57;;;;;;;12.82;5.07;;;19.40;99.90;;;;;;5090472;28;20048;-64
2023/09/29 07:20:24;;;;;;;11.20;4.75;;;19.60;99.90;;;;;;5089694;28;20499;-65
2023/09/29 07:22:51;;;;;;;11.65;4.68;;;19.80;99.90;;;;;;5096120;28;20544;-65
2023/09/29 07:25:19;;;;;;;10.40;4.80;;;19.70;99.90;;;;;;5097219;28;20053;-64
2023/09/29 07:27:46;;;;;;;8.57;4.47;;;19.50;99.90;;;;;;5093873;28;20040;-64
2023/09/29 07:30:14;;;;;;;9.32;4.55;;;19.30;99.90;;;;;;5088423;28;20063;-64
2023/09/29 07:32:41;;;;;;;8.73;4.35;;;19.20;99.90;;;;;;5086603;28;20145;-64
2023/09/29 07:35:09;;;;;;;8.18;3.75;;;19.10;99.90;;;;;;5090965;28;20047;-66
2023/09/29 07:37:38;;;;;;;8.40;3.92;;;19.00;99.90;;;;;;5091641;28;20047;-65
2023/09/29 07:40:06;;;;;;;10.57;3.92;;;19.10;99.90;;;;;;5089621;28;20173;-65
2023/09/29 07:42:34;;;;;;;9.23;3.90;;;19.50;99.90;;;;;;5091565;28;20054;-65
2023/09/29 07:45:01;;;;;;;9.70;3.85;;;19.60;99.90;;;;;;5089059;28;20056;-65
2023/09/29 07:47:28;;;;;;;8.57;3.95;;;19.60;99.90;;;;;;5090172;28;20047;-64
2023/09/29 07:49:55;;;;;;;6.55;3.75;;;19.50;99.90;;;;;;5089702;28;20047;-64
2023/09/29 07:52:27;;;;;;;10.70;4.35;;;19.50;99.90;;;;;;5091307;28;20096;-65
2023/09/29 07:54:54;;;;;;;9.75;3.67;;;19.60;99.90;;;;;;5086102;28;20058;-66
2023/09/29 07:57:21;;;;;;;10.35;3.58;;;19.80;99.90;;;;;;5089802;28;20105;-66
2023/09/29 07:59:50;;;;;;;9.38;3.33;;;20.30;99.90;;;;;;5106102;28;20051;-65
2023/09/29 08:02:17;;;;;;;6.43;3.33;;;21.10;99.90;;;;;;5091221;28;20048;-64
2023/09/29 08:04:44;;;;;;;6.28;3.60;;;21.80;99.90;;;;;;5090103;28;20043;-65
2023/09/29 08:07:12;;;;;;;9.13;3.72;;;22.30;99.90;;;;;;5090447;28;20051;-65
2023/09/29 08:09:39;;;;;;;7.60;2.55;;;22.50;99.90;;;;;;5106931;28;20048;-66
2023/09/29 08:12:06;;;;;;;10.38;3.60;;;22.90;99.90;;;;;;5083351;28;20054;-65
2023/09/29 08:14:33;;;;;;;6.22;3.00;;;23.10;99.90;;;;;;5092610;28;20058;-65
2023/09/29 08:17:01;;;;;;;7.03;3.10;;;23.30;99.90;;;;;;5087365;28;20059;-66
2023/09/29 08:19:29;;;;;;;5.50;2.72;;;23.20;99.90;;;;;;5093305;28;20063;-66
2023/09/29 08:21:56;;;;;;;6.13;2.80;;;23.30;99.90;;;;;;5106746;28;20036;-65
2023/09/29 08:24:23;;;;;;;4.03;2.53;;;23.30;99.90;;;;;;5109415;28;20548;-66
2023/09/29 08:26:50;;;;;;;9.15;3.17;;;23.00;99.90;;;;;;5104710;28;20055;-66
2023/09/29 08:29:17;;;;;;;5.95;3.10;;;22.80;99.90;;;;;;5106715;28;20093;-66
2023/09/29 08:31:44;;;;;;;5.10;2.75;;;22.30;99.90;;;;;;5087642;28;20430;-65
2023/09/29 08:34:12;;;;;;;6.10;2.80;;;22.20;99.90;;;;;;5087147;28;20055;-64
2023/09/29 08:36:39;;;;;;;6.20;2.70;;;22.20;99.90;;;;;;5085863;28;20124;-65
2023/09/29 08:39:06;;;;;;;7.78;2.78;;;22.20;99.90;;;;;;5089246;28;20040;-64
2023/09/29 08:41:35;;;;;;;5.72;2.88;;;22.20;99.90;;;;;;5089283;28;20048;-64
2023/09/29 08:44:04;;;;;;;8.85;2.92;;;22.40;99.90;;;;;;5109129;28;20044;-65
2023/09/29 08:46:34;;;;;;;6.18;2.70;;;22.70;99.90;;;;;;5089473;28;20043;-65
2023/09/29 08:49:04;;;;;;;6.22;2.78;;;23.00;99.90;;;;;;5091169;28;20039;-65
2023/09/29 08:51:33;;;;;;;5.07;2.73;;;23.40;99.90;;;;;;5086336;28;20491;-64
2023/09/29 08:54:03;;;;;;;5.05;2.65;;;23.80;99.90;;;;;;5086291;28;20092;-65
2023/09/29 08:56:31;;;;;;;5.00;2.72;;;24.20;99.90;;;;;;5090947;28;20489;-64
2023/09/29 08:59:00;;;;;;;8.63;3.13;;;24.10;99.90;;;;;;5088403;28;20048;-65
2023/09/29 09:01:27;;;;;;;4.25;2.50;;;24.00;99.90;;;;;;5092770;28;20044;-67
2023/09/29 09:03:54;;;;;;;4.28;2.63;;;24.10;99.90;;;;;;5080818;28;20052;-64
2023/09/29 09:06:23;;;;;;;6.40;2.50;;;23.90;99.90;;;;;;5108686;28;20047;-65
2023/09/29 09:08:52;;;;;;;5.32;2.60;;;23.60;99.90;;;;;;5109900;28;20058;-65
2023/09/29 09:11:20;;;;;;;6.57;2.75;;;23.30;99.90;;;;;;5091053;28;20044;-65
2023/09/29 09:13:59;;;;;;;4.47;2.47;;;23.00;99.90;;;;;;5096105;28;20640;-65
2023/09/29 09:16:27;;;;;;;4.70;2.28;;;22.60;99.90;;;;;;5096560;28;20082;-64
2023/09/29 09:18:54;;;;;;;5.35;2.67;;;22.30;99.90;;;;;;5093264;28;20075;-65
2023/09/29 09:21:21;;;;;;;5.63;2.63;;;22.20;99.90;;;;;;5095891;28;20558;-66
2023/09/29 09:23:48;;;;;;;6.18;3.05;;;22.30;99.90;;;;;;5095161;28;20047;-65
2023/09/29 09:26:17;;;;;;;6.82;2.70;;;22.80;99.90;;;;;;5092927;28;20051;-65
2023/09/29 09:28:44;;;;;;;5.70;2.88;;;23.40;99.90;;;;;;5113475;28;20040;-66
2023/09/29 09:31:11;;;;;;;8.18;2.75;;;24.10;99.90;;;;;;5097300;28;20031;-66
2023/09/29 09:33:39;;;;;;;5.78;2.55;;;24.40;99.90;;;;;;5097224;28;20483;-66
2023/09/29 09:36:09;;;;;;;4.80;2.40;;;24.50;99.90;;;;;;5096667;28;20052;-66
2023/09/29 09:38:37;;;;;;;7.90;2.72;;;24.10;99.90;;;;;;5114975;28;20047;-66
2023/09/29 09:41:04;;;;;;;6.07;2.50;;;24.00;99.90;;;;;;5093865;28;20055;-66
2023/09/29 09:43:35;;;;;;;7.93;2.90;;;23.90;99.90;;;;;;5096606;28;20048;-65
2023/09/29 09:46:06;;;;;;;6.90;2.63;;;23.70;99.90;;;;;;5114668;28;20054;-66
2023/09/29 09:48:45;;;;;;;6.70;3.03;;;23.70;99.90;;;;;;5094489;28;20387;-66
2023/09/29 09:51:19;;;;;;;6.13;2.85;;;23.40;99.90;;;;;;5090676;28;20151;-65
2023/09/29 09:53:47;;;;;;;4.60;2.30;;;23.40;99.90;;;;;;5093296;28;20101;-66
2023/09/29 09:56:21;;;;;;;5.85;2.60;;;23.40;99.90;;;;;;5087788;28;20055;-65
2023/09/29 09:58:52;;;;;;;7.97;2.90;;;23.30;99.90;;;;;;5091594;28;20463;-66
2023/09/29 10:01:20;;;;;;;6.10;3.03;;;23.10;99.90;;;;;;5092780;28;21347;-66
2023/09/29 10:03:47;;;;;;;4.88;2.60;;;22.70;99.90;;;;;;5091739;28;20040;-66
2023/09/29 10:06:14;;;;;;;7.53;3.17;;;22.80;99.90;;;;;;5092389;28;20044;-67
2023/09/29 10:08:44;;;;;;;6.47;3.08;;;22.80;99.90;;;;;;5092261;28;20044;-66
2023/09/29 10:11:13;;;;;;;8.90;3.20;;;22.70;99.90;;;;;;5093243;28;20093;-66
2023/09/29 10:13:42;;;;;;;6.95;3.00;;;22.50;99.90;;;;;;5092634;28;20055;-66
2023/09/29 10:16:21;;;;;;;5.55;3.20;;;22.40;99.90;;;;;;5091536;28;20055;-65
2023/09/29 10:18:56;;;;;;;7.03;3.23;;;22.40;99.90;;;;;;5092742;28;20047;-67
2023/09/29 10:21:23;;;;;;;10.95;3.47;;;22.40;99.90;;;;;;5092061;28;20105;-65
2023/09/29 10:23:50;;;;;;;12.10;3.70;;;23.20;99.90;;;;;;5090542;28;20052;-66
2023/09/29 10:26:20;;;;;;;6.88;3.15;;;24.00;99.90;;;;;;5092041;28;20048;-67
2023/09/29 10:28:47;;;;;;;7.32;3.35;;;24.00;99.90;;;;;;5090125;28;20048;-65
2023/09/29 10:31:17;;;;;;;9.07;3.60;;;23.60;99.90;;;;;;5090868;28;20048;-66
2023/09/29 10:33:52;;;;;;;5.47;3.50;;;23.10;99.90;;;;;;5083520;28;20728;-65
2023/09/29 10:36:20;;;;;;;6.72;3.30;;;22.70;99.90;;;;;;5085671;28;20298;-65
2023/09/29 10:38:47;;;;;;;7.13;3.75;;;22.50;99.90;;;;;;5085761;28;20070;-66
2023/09/29 10:41:15;;;;;;;7.15;4.07;;;22.20;99.90;;;;;;5085537;28;20573;-66
2023/09/29 10:43:46;;;;;;;6.30;3.40;;;22.10;99.90;;;;;;5084134;28;20052;-66
2023/09/29 10:46:13;;;;;;;7.55;3.42;;;22.00;99.90;;;;;;5084996;28;20125;-65
2023/09/29 10:48:48;;;;;;;9.45;3.65;;;21.70;99.90;;;;;;5091618;28;20083;-66
2023/09/29 10:51:23;;;;;;;7.30;3.47;;;21.60;99.90;;;;;;5091441;28;20060;-65
2023/09/29 10:53:50;;;;;;;7.20;3.83;;;21.60;99.90;;;;;;5092458;28;20612;-65
2023/09/29 10:56:21;;;;;;;5.80;3.88;;;21.50;99.90;;;;;;5080909;28;20459;-65
2023/09/29 10:58:52;;;;;;;8.20;3.95;;;21.60;99.90;;;;;;5084825;28;20044;-65
2023/09/29 11:01:28;;;;;;;8.25;3.65;;;21.60;99.90;;;;;;5085921;28;20074;-66
2023/09/29 11:03:57;;;;;;;6.05;3.15;;;21.70;99.90;;;;;;5089195;28;20487;-66
2023/09/29 11:06:24;;;;;;;9.15;3.63;;;21.80;99.90;;;;;;5080496;28;20484;-66
2023/09/29 11:08:53;;;;;;;5.93;3.80;;;21.90;99.90;;;;;;5080633;28;20051;-65
2023/09/29 11:11:21;;;;;;;6.75;3.22;;;22.00;99.90;;;;;;5039026;28;20055;-65
2023/09/29 11:13:55;;;;;;;6.40;3.45;;;21.80;99.90;;;;;;5086443;28;20044;-65
2023/09/29 11:16:24;;;;;;;7.13;3.72;;;21.70;99.90;;;;;;5079893;28;20048;-65
2023/09/29 11:18:55;;;;;;;8.20;3.85;;;21.60;99.90;;;;;;5086537;28;20048;-65
2023/09/29 11:21:34;;;;;;;8.30;3.90;;;21.40;99.90;;;;;;5085873;28;20048;-65
2023/09/29 11:24:06;;;;;;;6.03;3.58;;;21.30;99.90;;;;;;5089641;28;20446;-66
2023/09/29 11:26:34;;;;;;;7.55;3.83;;;21.30;99.90;;;;;;5087649;28;20056;-66
2023/09/29 11:29:02;;;;;;;8.18;3.90;;;21.20;99.90;;;;;;5085248;28;20463;-64
2023/09/29 11:31:29;;;;;;;10.00;4.22;;;21.20;99.90;;;;;;5090409;28;20531;-64
2023/09/29 11:33:57;;;;;;;6.60;4.03;;;21.10;99.90;;;;;;5085937;28;20052;-65
2023/09/29 11:36:27;;;;;;;10.13;3.70;;;21.00;99.90;;;;;;5089987;28;20093;-65
2023/09/29 11:38:54;;;;;;;8.55;4.22;;;21.00;99.90;;;;;;5091765;28;20051;-65
2023/09/29 11:41:22;;;;;;;8.48;3.85;;;20.80;99.90;;;;;;5089368;28;20048;-64
2023/09/29 11:43:49;;;;;;;9.10;4.55;;;20.60;99.90;;;;;;5090986;28;20066;-64
2023/09/29 11:46:18;;;;;;;9.18;4.70;;;20.50;99.90;;;;;;5089757;28;20052;-65
2023/09/29 11:48:45;;;;;;;10.63;5.00;;;20.40;99.90;;;;;;5087434;28;20086;-64
2023/09/29 11:51:13;;;;;;;7.63;4.55;;;20.20;99.90;;;;;;5091076;28;20059;-64
2023/09/29 11:53:42;;;;;;;9.00;4.75;;;20.10;99.90;;;;;;5089393;28;20052;-65
2023/09/29 11:56:09;;;;;;;9.77;5.10;;;20.10;99.90;;;;;;5090250;28;20056;-65
2023/09/29 11:58:37;;;;;;;9.00;5.05;;;20.10;99.90;;;;;;5090654;28;20044;-65
2023/09/29 12:01:06;;;;;;;9.10;5.07;;;20.20;99.90;;;;;;5090943;28;20047;-65
2023/09/29 12:03:34;;;;;;;11.63;5.65;;;20.20;99.90;;;;;;5089121;28;20054;-65
2023/09/29 12:06:02;;;;;;;11.70;5.75;;;20.20;99.90;;;;;;5090648;28;20050;-65
2023/09/29 12:08:29;;;;;;;6.10;4.60;;;20.20;99.90;;;;;;5090773;28;20052;-65
2023/09/29 12:10:59;;;;;;;9.48;5.63;;;20.00;99.90;;;;;;5090049;28;20048;-65
2023/09/29 12:13:26;;;;;;;5.60;3.67;;;19.90;99.90;;;;;;5090601;28;20043;-64
2023/09/29 12:15:53;;;;;;;3.38;1.70;;;19.80;99.90;;;;;;5090086;28;20495;-65
2023/09/29 12:18:20;;;;;;;3.97;1.30;;;19.70;99.90;;;;;;5092290;28;20052;-65
2023/09/29 12:20:51;;;;;;;5.40;3.70;;;19.50;99.90;;;;;;5091326;28;20090;-64
2023/09/29 12:23:18;;;;;;;7.60;5.97;;;19.30;99.90;;;;;;5089946;28;20174;-65
2023/09/29 12:25:45;;;;;;;8.90;5.60;;;19.20;99.90;;;;;;5090631;28;20043;-65
2023/09/29 12:28:13;;;;;;;8.98;5.25;;;19.10;99.90;;;;;;5090315;28;20054;-65
2023/09/29 12:30:41;;;;;;;9.18;4.15;;;19.00;99.90;;;;;;5089628;28;20052;-64
2023/09/29 12:33:08;;;;;;;9.57;6.82;;;18.90;99.90;;;;;;5091670;28;20084;-65
2023/09/29 12:35:35;;;;;;;8.45;5.15;;;18.80;99.90;;;;;;5091381;28;20456;-65
2023/09/29 12:38:03;;;;;;;7.63;4.32;;;18.70;99.90;;;;;;5088104;28;20484;-66
2023/09/29 12:40:30;;;;;;;4.15;2.17;;;18.60;99.90;;;;;;5090450;28;20048;-65
2023/09/29 12:42:59;;;;;;;7.40;3.20;;;18.40;99.90;;;;;;5088691;28;20053;-65
2023/09/29 12:45:27;;;;;;;6.17;3.23;;;18.30;99.90;;;;;;5089820;28;20055;-65